sensor_id;sensor_type;location;lat;lon;timestamp;temperature;humidity
11536;DHT22;5824;49.336;8.652;2023-07-29T00:00:44;19.40;1.00
11536;DHT22;5824;49.336;8.652;2023-07-29T00:03:10;19.40;1.00
11536;DHT22;5824;49.336;8.652;2023-07-29T00:05:39;19.50;1.00
11536;DHT22;5824;49.336;8.652;2023-07-29T00:08:05;21.10;1.00
11536;DHT22;5824;49.336;8.652;2023-07-29T00:10:32;19.40;1.00
11536;DHT22;5824;49.336;8.652;2023-07-29T00:12:58;19.40;1.00
11536;DHT22;5824;49.336;8.652;2023-07-29T00:15:24;19.40;1.00
11536;DHT22;5824;49.336;8.652;2023-07-29T00:17:50;19.40;1.00
11536;DHT22;5824;49.336;8.652;2023-07-29T00:20:15;19.40;1.00
11536;DHT22;5824;49.336;8.652;2023-07-29T00:22:41;19.40;1.00
11536;DHT22;5824;49.336;8.652;2023-07-29T00:25:07;19.40;1.00
11536;DHT22;5824;49.336;8.652;2023-07-29T00:27:32;19.40;1.00
11536;DHT22;5824;49.336;8.652;2023-07-29T00:29:58;19.40;1.00
11536;DHT22;5824;49.336;8.652;2023-07-29T00:32:23;19.40;1.00
11536;DHT22;5824;49.336;8.652;2023-07-29T00:34:49;19.40;1.00
11536;DHT22;5824;49.336;8.652;2023-07-29T00:37:14;19.40;1.00
11536;DHT22;5824;49.336;8.652;2023-07-29T00:39:40;19.40;1.00
11536;DHT22;5824;49.336;8.652;2023-07-29T00:42:06;19.40;1.00
11536;DHT22;5824;49.336;8.652;2023-07-29T00:44:32;19.40;1.00
11536;DHT22;5824;49.336;8.652;2023-07-29T00:46:58;19.40;1.00
11536;DHT22;5824;49.336;8.652;2023-07-29T00:49:24;19.30;1.00
11536;DHT22;5824;49.336;8.652;2023-07-29T00:51:50;19.30;1.00
11536;DHT22;5824;49.336;8.652;2023-07-29T00:54:15;19.30;1.00
11536;DHT22;5824;49.336;8.652;2023-07-29T00:56:41;19.30;1.00
11536;DHT22;5824;49.336;8.652;2023-07-29T00:59:07;19.30;1.00
11536;DHT22;5824;49.336;8.652;2023-07-29T01:01:33;19.30;1.00
11536;DHT22;5824;49.336;8.652;2023-07-29T01:03:59;19.20;1.00
11536;DHT22;5824;49.336;8.652;2023-07-29T01:09:04;19.30;1.00
11536;DHT22;5824;49.336;8.652;2023-07-29T01:11:44;19.30;1.00
11536;DHT22;5824;49.336;8.652;2023-07-29T01:16:42;19.30;1.00
11536;DHT22;5824;49.336;8.652;2023-07-29T01:19:35;19.40;1.00
11536;DHT22;5824;49.336;8.652;2023-07-29T01:22:04;19.40;1.00
11536;DHT22;5824;49.336;8.652;2023-07-29T01:24:30;19.40;1.00
11536;DHT22;5824;49.336;8.652;2023-07-29T01:26:55;19.40;1.00
11536;DHT22;5824;49.336;8.652;2023-07-29T01:29:21;19.50;1.00
11536;DHT22;5824;49.336;8.652;2023-07-29T01:31:48;19.50;1.00
11536;DHT22;5824;49.336;8.652;2023-07-29T01:34:29;19.50;1.00
11536;DHT22;5824;49.336;8.652;2023-07-29T01:36:57;19.50;1.00
11536;DHT22;5824;49.336;8.652;2023-07-29T01:39:27;19.40;1.00
11536;DHT22;5824;49.336;8.652;2023-07-29T01:41:55;19.40;1.00
11536;DHT22;5824;49.336;8.652;2023-07-29T01:44:20;19.40;1.00
11536;DHT22;5824;49.336;8.652;2023-07-29T01:46:46;19.40;1.00
11536;DHT22;5824;49.336;8.652;2023-07-29T01:49:12;19.50;1.00
11536;DHT22;5824;49.336;8.652;2023-07-29T01:51:38;19.50;1.00
11536;DHT22;5824;49.336;8.652;2023-07-29T01:54:03;19.50;1.00
11536;DHT22;5824;49.336;8.652;2023-07-29T01:56:29;19.40;1.00
11536;DHT22;5824;49.336;8.652;2023-07-29T01:58:55;19.40;1.00
11536;DHT22;5824;49.336;8.652;2023-07-29T02:01:20;19.40;1.00
11536;DHT22;5824;49.336;8.652;2023-07-29T02:03:46;19.30;1.00
11536;DHT22;5824;49.336;8.652;2023-07-29T02:06:11;19.20;1.00
11536;DHT22;5824;49.336;8.652;2023-07-29T02:08:38;19.20;1.00
11536;DHT22;5824;49.336;8.652;2023-07-29T02:11:06;19.20;1.00
11536;DHT22;5824;49.336;8.652;2023-07-29T02:13:31;19.20;1.00
11536;DHT22;5824;49.336;8.652;2023-07-29T02:15:57;19.20;1.00
11536;DHT22;5824;49.336;8.652;2023-07-29T02:18:22;19.20;1.00
11536;DHT22;5824;49.336;8.652;2023-07-29T02:20:48;19.20;1.00
11536;DHT22;5824;49.336;8.652;2023-07-29T02:23:15;19.20;1.00
11536;DHT22;5824;49.336;8.652;2023-07-29T02:25:42;19.20;1.00
11536;DHT22;5824;49.336;8.652;2023-07-29T02:28:08;19.10;1.00
11536;DHT22;5824;49.336;8.652;2023-07-29T02:30:33;19.10;1.00
11536;DHT22;5824;49.336;8.652;2023-07-29T02:32:59;19.00;1.00
11536;DHT22;5824;49.336;8.652;2023-07-29T02:35:26;19.00;1.00
11536;DHT22;5824;49.336;8.652;2023-07-29T02:37:52;19.00;1.00
11536;DHT22;5824;49.336;8.652;2023-07-29T02:40:17;19.10;1.00
11536;DHT22;5824;49.336;8.652;2023-07-29T02:42:43;19.10;1.00
11536;DHT22;5824;49.336;8.652;2023-07-29T02:45:08;19.10;1.00
11536;DHT22;5824;49.336;8.652;2023-07-29T02:47:37;19.10;1.00
11536;DHT22;5824;49.336;8.652;2023-07-29T02:50:03;19.10;1.00
11536;DHT22;5824;49.336;8.652;2023-07-29T02:52:28;19.10;1.00
11536;DHT22;5824;49.336;8.652;2023-07-29T02:54:54;19.10;1.00
11536;DHT22;5824;49.336;8.652;2023-07-29T02:57:20;19.10;1.00
11536;DHT22;5824;49.336;8.652;2023-07-29T02:59:45;19.10;1.00
11536;DHT22;5824;49.336;8.652;2023-07-29T03:02:11;19.00;1.00
11536;DHT22;5824;49.336;8.652;2023-07-29T03:04:37;19.00;1.00
11536;DHT22;5824;49.336;8.652;2023-07-29T03:07:03;19.00;1.00
11536;DHT22;5824;49.336;8.652;2023-07-29T03:09:29;19.00;1.00
11536;DHT22;5824;49.336;8.652;2023-07-29T03:11:54;19.00;1.00
11536;DHT22;5824;49.336;8.652;2023-07-29T03:14:21;19.00;1.00
11536;DHT22;5824;49.336;8.652;2023-07-29T03:16:46;19.10;1.00
11536;DHT22;5824;49.336;8.652;2023-07-29T03:19:12;19.10;1.00
11536;DHT22;5824;49.336;8.652;2023-07-29T03:21:38;19.10;1.00
11536;DHT22;5824;49.336;8.652;2023-07-29T03:24:03;19.10;1.00
11536;DHT22;5824;49.336;8.652;2023-07-29T03:26:29;19.10;1.00
11536;DHT22;5824;49.336;8.652;2023-07-29T03:28:54;19.10;1.00
11536;DHT22;5824;49.336;8.652;2023-07-29T03:31:20;19.20;1.00
11536;DHT22;5824;49.336;8.652;2023-07-29T03:33:46;19.20;1.00
11536;DHT22;5824;49.336;8.652;2023-07-29T03:36:11;19.20;1.00
11536;DHT22;5824;49.336;8.652;2023-07-29T03:38:37;19.20;1.00
11536;DHT22;5824;49.336;8.652;2023-07-29T03:41:08;19.20;1.00
11536;DHT22;5824;49.336;8.652;2023-07-29T03:43:34;19.20;1.00
11536;DHT22;5824;49.336;8.652;2023-07-29T03:46:00;19.30;1.00
11536;DHT22;5824;49.336;8.652;2023-07-29T03:48:25;19.30;1.00
11536;DHT22;5824;49.336;8.652;2023-07-29T03:50:51;19.30;1.00
11536;DHT22;5824;49.336;8.652;2023-07-29T03:53:16;19.30;1.00
11536;DHT22;5824;49.336;8.652;2023-07-29T03:55:42;19.30;1.00
11536;DHT22;5824;49.336;8.652;2023-07-29T03:58:08;19.30;1.00
11536;DHT22;5824;49.336;8.652;2023-07-29T04:00:33;19.30;1.00
11536;DHT22;5824;49.336;8.652;2023-07-29T04:02:59;19.30;1.00
11536;DHT22;5824;49.336;8.652;2023-07-29T04:05:24;19.30;1.00
11536;DHT22;5824;49.336;8.652;2023-07-29T04:07:50;19.30;1.00
11536;DHT22;5824;49.336;8.652;2023-07-29T04:10:15;19.40;1.00
11536;DHT22;5824;49.336;8.652;2023-07-29T04:12:41;19.40;1.00
11536;DHT22;5824;49.336;8.652;2023-07-29T04:15:07;19.40;1.00
11536;DHT22;5824;49.336;8.652;2023-07-29T04:17:33;19.40;1.00
11536;DHT22;5824;49.336;8.652;2023-07-29T04:19:58;19.40;1.00
11536;DHT22;5824;49.336;8.652;2023-07-29T04:22:23;19.40;1.00
11536;DHT22;5824;49.336;8.652;2023-07-29T04:24:49;19.40;1.00
11536;DHT22;5824;49.336;8.652;2023-07-29T04:27:14;19.40;1.00
11536;DHT22;5824;49.336;8.652;2023-07-29T04:29:40;19.50;1.00
11536;DHT22;5824;49.336;8.652;2023-07-29T04:32:06;19.40;1.00
11536;DHT22;5824;49.336;8.652;2023-07-29T04:34:31;19.50;1.00
11536;DHT22;5824;49.336;8.652;2023-07-29T04:36:57;19.40;1.00
11536;DHT22;5824;49.336;8.652;2023-07-29T04:39:23;19.40;1.00
11536;DHT22;5824;49.336;8.652;2023-07-29T04:41:48;19.40;1.00
11536;DHT22;5824;49.336;8.652;2023-07-29T04:44:14;19.30;1.00
11536;DHT22;5824;49.336;8.652;2023-07-29T04:46:39;18.90;1.00
11536;DHT22;5824;49.336;8.652;2023-07-29T04:49:05;18.90;1.00
11536;DHT22;5824;49.336;8.652;2023-07-29T04:51:30;18.90;1.00
11536;DHT22;5824;49.336;8.652;2023-07-29T04:53:57;18.70;1.00
11536;DHT22;5824;49.336;8.652;2023-07-29T04:56:23;18.60;1.00
11536;DHT22;5824;49.336;8.652;2023-07-29T04:58:48;18.60;1.00
11536;DHT22;5824;49.336;8.652;2023-07-29T05:01:14;18.60;3.10
11536;DHT22;5824;49.336;8.652;2023-07-29T05:03:39;18.60;6.30
11536;DHT22;5824;49.336;8.652;2023-07-29T05:06:05;18.60;7.10
11536;DHT22;5824;49.336;8.652;2023-07-29T05:08:31;18.60;8.90
11536;DHT22;5824;49.336;8.652;2023-07-29T05:10:56;18.70;12.20
11536;DHT22;5824;49.336;8.652;2023-07-29T05:13:22;18.70;11.30
11536;DHT22;5824;49.336;8.652;2023-07-29T05:15:48;18.70;14.40
11536;DHT22;5824;49.336;8.652;2023-07-29T05:18:15;18.70;12.90
11536;DHT22;5824;49.336;8.652;2023-07-29T05:20:41;18.80;12.80
11536;DHT22;5824;49.336;8.652;2023-07-29T05:23:06;18.70;13.20
11536;DHT22;5824;49.336;8.652;2023-07-29T05:25:32;20.00;16.90
11536;DHT22;5824;49.336;8.652;2023-07-29T05:28:00;18.90;16.50
11536;DHT22;5824;49.336;8.652;2023-07-29T05:30:25;18.90;15.40
11536;DHT22;5824;49.336;8.652;2023-07-29T05:32:52;20.10;13.50
11536;DHT22;5824;49.336;8.652;2023-07-29T05:35:17;18.90;13.90
11536;DHT22;5824;49.336;8.652;2023-07-29T05:37:43;18.90;11.60
11536;DHT22;5824;49.336;8.652;2023-07-29T05:40:09;19.00;15.70
11536;DHT22;5824;49.336;8.652;2023-07-29T05:42:35;19.00;14.10
11536;DHT22;5824;49.336;8.652;2023-07-29T05:45:01;19.00;15.10
11536;DHT22;5824;49.336;8.652;2023-07-29T05:47:26;18.90;14.00
11536;DHT22;5824;49.336;8.652;2023-07-29T05:49:52;18.90;14.80
11536;DHT22;5824;49.336;8.652;2023-07-29T05:52:18;18.90;16.00
11536;DHT22;5824;49.336;8.652;2023-07-29T05:54:44;18.90;17.00
11536;DHT22;5824;49.336;8.652;2023-07-29T05:57:10;18.80;14.40
11536;DHT22;5824;49.336;8.652;2023-07-29T05:59:36;18.90;17.50
11536;DHT22;5824;49.336;8.652;2023-07-29T06:02:02;18.90;18.40
11536;DHT22;5824;49.336;8.652;2023-07-29T06:04:27;19.00;19.70
11536;DHT22;5824;49.336;8.652;2023-07-29T06:06:53;18.90;21.10
11536;DHT22;5824;49.336;8.652;2023-07-29T06:09:18;19.00;21.30
11536;DHT22;5824;49.336;8.652;2023-07-29T06:11:44;19.10;21.00
11536;DHT22;5824;49.336;8.652;2023-07-29T06:14:09;19.10;21.90
11536;DHT22;5824;49.336;8.652;2023-07-29T06:16:35;19.30;18.20
11536;DHT22;5824;49.336;8.652;2023-07-29T06:19:00;19.40;20.50
11536;DHT22;5824;49.336;8.652;2023-07-29T06:21:26;19.40;19.60
11536;DHT22;5824;49.336;8.652;2023-07-29T06:23:51;19.50;18.20
11536;DHT22;5824;49.336;8.652;2023-07-29T06:26:17;19.50;16.10
11536;DHT22;5824;49.336;8.652;2023-07-29T06:28:42;19.50;18.90
11536;DHT22;5824;49.336;8.652;2023-07-29T06:31:08;19.40;18.60
11536;DHT22;5824;49.336;8.652;2023-07-29T06:33:33;19.40;20.40
11536;DHT22;5824;49.336;8.652;2023-07-29T06:35:59;19.40;22.90
11536;DHT22;5824;49.336;8.652;2023-07-29T06:38:24;19.40;23.40
11536;DHT22;5824;49.336;8.652;2023-07-29T06:40:50;19.50;24.30
11536;DHT22;5824;49.336;8.652;2023-07-29T06:43:16;19.50;25.10
11536;DHT22;5824;49.336;8.652;2023-07-29T06:45:42;19.50;26.70
11536;DHT22;5824;49.336;8.652;2023-07-29T06:48:08;19.70;25.50
11536;DHT22;5824;49.336;8.652;2023-07-29T06:50:33;19.80;28.60
11536;DHT22;5824;49.336;8.652;2023-07-29T06:52:59;20.00;23.90
11536;DHT22;5824;49.336;8.652;2023-07-29T06:55:24;20.10;19.30
11536;DHT22;5824;49.336;8.652;2023-07-29T06:57:50;20.20;20.20
11536;DHT22;5824;49.336;8.652;2023-07-29T07:00:15;20.20;17.70
11536;DHT22;5824;49.336;8.652;2023-07-29T07:02:41;20.00;17.00
11536;DHT22;5824;49.336;8.652;2023-07-29T07:05:07;20.00;20.10
11536;DHT22;5824;49.336;8.652;2023-07-29T07:07:32;20.10;23.30
11536;DHT22;5824;49.336;8.652;2023-07-29T07:09:58;20.20;24.70
11536;DHT22;5824;49.336;8.652;2023-07-29T07:12:24;20.20;23.50
11536;DHT22;5824;49.336;8.652;2023-07-29T07:14:49;20.20;23.70
11536;DHT22;5824;49.336;8.652;2023-07-29T07:17:15;20.20;22.10
11536;DHT22;5824;49.336;8.652;2023-07-29T07:19:40;20.30;24.10
11536;DHT22;5824;49.336;8.652;2023-07-29T07:22:06;20.30;20.80
11536;DHT22;5824;49.336;8.652;2023-07-29T07:24:31;20.30;20.90
11536;DHT22;5824;49.336;8.652;2023-07-29T07:26:57;20.60;17.00
11536;DHT22;5824;49.336;8.652;2023-07-29T07:29:22;20.70;23.20
11536;DHT22;5824;49.336;8.652;2023-07-29T07:31:52;21.00;5.90
11536;DHT22;5824;49.336;8.652;2023-07-29T07:34:19;21.30;1.00
11536;DHT22;5824;49.336;8.652;2023-07-29T07:36:45;21.60;2.70
11536;DHT22;5824;49.336;8.652;2023-07-29T07:39:10;22.00;1.00
11536;DHT22;5824;49.336;8.652;2023-07-29T07:41:36;21.80;1.00
11536;DHT22;5824;49.336;8.652;2023-07-29T07:44:01;21.60;1.00
11536;DHT22;5824;49.336;8.652;2023-07-29T07:46:28;21.70;1.00
11536;DHT22;5824;49.336;8.652;2023-07-29T07:48:53;21.80;1.00
11536;DHT22;5824;49.336;8.652;2023-07-29T07:51:19;21.90;1.00
11536;DHT22;5824;49.336;8.652;2023-07-29T07:53:44;22.00;1.00
11536;DHT22;5824;49.336;8.652;2023-07-29T07:56:10;21.70;1.00
11536;DHT22;5824;49.336;8.652;2023-07-29T07:58:36;21.70;1.00
11536;DHT22;5824;49.336;8.652;2023-07-29T08:01:06;21.70;1.00
11536;DHT22;5824;49.336;8.652;2023-07-29T08:03:32;21.50;1.00
11536;DHT22;5824;49.336;8.652;2023-07-29T08:05:58;21.40;1.00
11536;DHT22;5824;49.336;8.652;2023-07-29T08:08:24;21.30;1.00
11536;DHT22;5824;49.336;8.652;2023-07-29T08:10:50;21.20;1.00
11536;DHT22;5824;49.336;8.652;2023-07-29T08:13:15;21.30;1.00
11536;DHT22;5824;49.336;8.652;2023-07-29T08:15:41;21.20;1.00
11536;DHT22;5824;49.336;8.652;2023-07-29T08:18:07;21.30;1.00
11536;DHT22;5824;49.336;8.652;2023-07-29T08:20:32;21.50;1.00
11536;DHT22;5824;49.336;8.652;2023-07-29T08:22:58;21.50;1.00
11536;DHT22;5824;49.336;8.652;2023-07-29T08:25:23;21.60;1.00
11536;DHT22;5824;49.336;8.652;2023-07-29T08:27:49;21.80;1.00
11536;DHT22;5824;49.336;8.652;2023-07-29T08:30:14;21.90;1.00
11536;DHT22;5824;49.336;8.652;2023-07-29T08:32:41;22.10;1.00
11536;DHT22;5824;49.336;8.652;2023-07-29T08:35:07;22.50;1.00
11536;DHT22;5824;49.336;8.652;2023-07-29T08:37:33;22.90;1.00
11536;DHT22;5824;49.336;8.652;2023-07-29T08:39:59;23.10;1.00
11536;DHT22;5824;49.336;8.652;2023-07-29T08:42:29;23.30;1.00
11536;DHT22;5824;49.336;8.652;2023-07-29T08:44:56;23.20;1.00
11536;DHT22;5824;49.336;8.652;2023-07-29T08:47:21;23.10;1.00
11536;DHT22;5824;49.336;8.652;2023-07-29T08:49:47;23.30;1.00
11536;DHT22;5824;49.336;8.652;2023-07-29T08:52:16;23.40;1.00
11536;DHT22;5824;49.336;8.652;2023-07-29T08:54:41;23.20;1.00
11536;DHT22;5824;49.336;8.652;2023-07-29T08:57:07;23.20;1.00
11536;DHT22;5824;49.336;8.652;2023-07-29T08:59:33;23.30;1.00
11536;DHT22;5824;49.336;8.652;2023-07-29T09:01:58;23.20;1.00
11536;DHT22;5824;49.336;8.652;2023-07-29T09:04:24;23.30;1.00
11536;DHT22;5824;49.336;8.652;2023-07-29T09:06:51;23.20;1.00
11536;DHT22;5824;49.336;8.652;2023-07-29T09:09:16;23.30;1.00
11536;DHT22;5824;49.336;8.652;2023-07-29T09:11:43;24.00;1.00
11536;DHT22;5824;49.336;8.652;2023-07-29T09:14:09;24.90;1.00
11536;DHT22;5824;49.336;8.652;2023-07-29T09:16:35;26.10;1.00
11536;DHT22;5824;49.336;8.652;2023-07-29T09:19:02;27.20;1.00
11536;DHT22;5824;49.336;8.652;2023-07-29T09:21:29;28.70;1.00
11536;DHT22;5824;49.336;8.652;2023-07-29T09:23:55;29.30;1.00
11536;DHT22;5824;49.336;8.652;2023-07-29T09:26:25;30.30;1.00
11536;DHT22;5824;49.336;8.652;2023-07-29T09:28:55;30.30;1.00
11536;DHT22;5824;49.336;8.652;2023-07-29T09:31:22;30.70;1.00
11536;DHT22;5824;49.336;8.652;2023-07-29T09:33:49;30.80;1.00
11536;DHT22;5824;49.336;8.652;2023-07-29T09:36:15;31.50;1.00
11536;DHT22;5824;49.336;8.652;2023-07-29T09:38:40;31.60;1.00
11536;DHT22;5824;49.336;8.652;2023-07-29T09:41:06;32.40;1.00
11536;DHT22;5824;49.336;8.652;2023-07-29T09:43:33;33.10;1.00
11536;DHT22;5824;49.336;8.652;2023-07-29T09:46:00;32.60;1.00
11536;DHT22;5824;49.336;8.652;2023-07-29T09:48:26;31.50;1.00
11536;DHT22;5824;49.336;8.652;2023-07-29T09:50:54;30.70;1.00
11536;DHT22;5824;49.336;8.652;2023-07-29T09:53:20;30.20;1.00
11536;DHT22;5824;49.336;8.652;2023-07-29T09:55:47;29.70;1.00
11536;DHT22;5824;49.336;8.652;2023-07-29T09:58:14;29.40;1.00
11536;DHT22;5824;49.336;8.652;2023-07-29T10:00:39;29.20;1.00
11536;DHT22;5824;49.336;8.652;2023-07-29T10:03:06;28.80;1.00
11536;DHT22;5824;49.336;8.652;2023-07-29T10:05:32;28.50;1.00
11536;DHT22;5824;49.336;8.652;2023-07-29T10:08:00;28.70;1.00
11536;DHT22;5824;49.336;8.652;2023-07-29T10:10:27;28.60;1.00
11536;DHT22;5824;49.336;8.652;2023-07-29T10:12:54;28.20;1.00
11536;DHT22;5824;49.336;8.652;2023-07-29T10:15:21;29.00;1.00
11536;DHT22;5824;49.336;8.652;2023-07-29T10:17:46;29.30;1.00
11536;DHT22;5824;49.336;8.652;2023-07-29T10:20:13;28.50;1.00
11536;DHT22;5824;49.336;8.652;2023-07-29T10:22:40;28.10;1.00
11536;DHT22;5824;49.336;8.652;2023-07-29T10:25:17;28.20;1.00
11536;DHT22;5824;49.336;8.652;2023-07-29T10:27:49;27.90;1.00
11536;DHT22;5824;49.336;8.652;2023-07-29T10:30:15;27.70;1.00
11536;DHT22;5824;49.336;8.652;2023-07-29T10:32:42;27.50;1.00
11536;DHT22;5824;49.336;8.652;2023-07-29T10:35:10;27.30;1.00
11536;DHT22;5824;49.336;8.652;2023-07-29T10:37:36;27.30;1.00
11536;DHT22;5824;49.336;8.652;2023-07-29T10:40:06;27.40;1.00
11536;DHT22;5824;49.336;8.652;2023-07-29T10:42:32;27.30;1.00
11536;DHT22;5824;49.336;8.652;2023-07-29T10:44:57;27.30;1.00
11536;DHT22;5824;49.336;8.652;2023-07-29T10:47:27;27.60;1.00
11536;DHT22;5824;49.336;8.652;2023-07-29T10:49:58;28.00;1.00
11536;DHT22;5824;49.336;8.652;2023-07-29T10:55:00;28.30;1.00
11536;DHT22;5824;49.336;8.652;2023-07-29T10:57:34;28.10;1.00
11536;DHT22;5824;49.336;8.652;2023-07-29T11:00:02;28.20;1.00
11536;DHT22;5824;49.336;8.652;2023-07-29T11:02:30;28.40;1.00
11536;DHT22;5824;49.336;8.652;2023-07-29T11:04:56;28.90;1.00
11536;DHT22;5824;49.336;8.652;2023-07-29T11:07:26;29.70;1.00
11536;DHT22;5824;49.336;8.652;2023-07-29T11:12:45;30.20;1.00
11536;DHT22;5824;49.336;8.652;2023-07-29T11:17:39;28.70;1.00
11536;DHT22;5824;49.336;8.652;2023-07-29T11:20:06;28.40;1.00
11536;DHT22;5824;49.336;8.652;2023-07-29T11:22:35;28.60;1.00
11536;DHT22;5824;49.336;8.652;2023-07-29T11:25:01;28.80;1.00
11536;DHT22;5824;49.336;8.652;2023-07-29T11:27:27;28.70;1.00
11536;DHT22;5824;49.336;8.652;2023-07-29T11:30:00;28.90;1.00
11536;DHT22;5824;49.336;8.652;2023-07-29T11:32:26;28.30;1.00
11536;DHT22;5824;49.336;8.652;2023-07-29T11:34:51;27.70;1.00
11536;DHT22;5824;49.336;8.652;2023-07-29T11:37:17;27.80;1.00
11536;DHT22;5824;49.336;8.652;2023-07-29T11:39:44;28.70;1.00
11536;DHT22;5824;49.336;8.652;2023-07-29T11:42:11;30.70;1.00
11536;DHT22;5824;49.336;8.652;2023-07-29T11:44:37;32.10;1.00
11536;DHT22;5824;49.336;8.652;2023-07-29T11:47:06;32.60;1.00
11536;DHT22;5824;49.336;8.652;2023-07-29T11:49:33;33.30;1.00
11536;DHT22;5824;49.336;8.652;2023-07-29T11:51:59;34.20;1.00
11536;DHT22;5824;49.336;8.652;2023-07-29T11:54:25;34.90;1.00
11536;DHT22;5824;49.336;8.652;2023-07-29T11:56:51;34.60;1.00
11536;DHT22;5824;49.336;8.652;2023-07-29T11:59:16;34.60;1.00
11536;DHT22;5824;49.336;8.652;2023-07-29T12:01:42;34.40;1.00
11536;DHT22;5824;49.336;8.652;2023-07-29T12:04:08;34.80;1.00
11536;DHT22;5824;49.336;8.652;2023-07-29T12:06:33;35.60;1.00
11536;DHT22;5824;49.336;8.652;2023-07-29T12:09:00;35.00;1.00
11536;DHT22;5824;49.336;8.652;2023-07-29T12:11:26;35.50;1.00
11536;DHT22;5824;49.336;8.652;2023-07-29T12:13:53;34.80;1.00
11536;DHT22;5824;49.336;8.652;2023-07-29T12:16:19;34.50;1.00
11536;DHT22;5824;49.336;8.652;2023-07-29T12:18:45;34.60;1.00
11536;DHT22;5824;49.336;8.652;2023-07-29T12:21:10;34.90;1.00
11536;DHT22;5824;49.336;8.652;2023-07-29T12:23:36;35.70;1.00
11536;DHT22;5824;49.336;8.652;2023-07-29T12:26:01;35.60;1.00
11536;DHT22;5824;49.336;8.652;2023-07-29T12:28:27;35.80;1.00
11536;DHT22;5824;49.336;8.652;2023-07-29T12:30:54;34.90;1.00
11536;DHT22;5824;49.336;8.652;2023-07-29T12:33:30;35.00;1.00
11536;DHT22;5824;49.336;8.652;2023-07-29T12:35:56;35.20;1.00
11536;DHT22;5824;49.336;8.652;2023-07-29T12:38:21;34.90;1.00
11536;DHT22;5824;49.336;8.652;2023-07-29T12:40:47;35.00;1.00
11536;DHT22;5824;49.336;8.652;2023-07-29T12:43:12;34.80;1.00
11536;DHT22;5824;49.336;8.652;2023-07-29T12:45:38;35.50;1.00
11536;DHT22;5824;49.336;8.652;2023-07-29T12:48:07;36.10;1.00
11536;DHT22;5824;49.336;8.652;2023-07-29T12:50:32;35.60;1.00
11536;DHT22;5824;49.336;8.652;2023-07-29T12:52:58;36.50;1.00
11536;DHT22;5824;49.336;8.652;2023-07-29T12:55:23;36.80;1.00
11536;DHT22;5824;49.336;8.652;2023-07-29T12:57:49;36.40;1.00
11536;DHT22;5824;49.336;8.652;2023-07-29T13:00:15;37.60;1.00
11536;DHT22;5824;49.336;8.652;2023-07-29T13:02:41;37.70;1.00
11536;DHT22;5824;49.336;8.652;2023-07-29T13:05:09;37.50;1.00
11536;DHT22;5824;49.336;8.652;2023-07-29T13:07:42;38.10;1.00
11536;DHT22;5824;49.336;8.652;2023-07-29T13:10:09;37.50;1.00
11536;DHT22;5824;49.336;8.652;2023-07-29T13:12:34;37.50;1.00
11536;DHT22;5824;49.336;8.652;2023-07-29T13:15:00;38.00;1.00
11536;DHT22;5824;49.336;8.652;2023-07-29T13:17:26;38.20;1.00
11536;DHT22;5824;49.336;8.652;2023-07-29T13:19:51;37.40;1.00
11536;DHT22;5824;49.336;8.652;2023-07-29T13:22:17;35.20;1.00
11536;DHT22;5824;49.336;8.652;2023-07-29T13:24:43;34.70;1.00
11536;DHT22;5824;49.336;8.652;2023-07-29T13:27:08;32.90;1.00
11536;DHT22;5824;49.336;8.652;2023-07-29T13:29:34;32.50;1.00
11536;DHT22;5824;49.336;8.652;2023-07-29T13:31:59;32.20;1.00
11536;DHT22;5824;49.336;8.652;2023-07-29T13:34:25;32.60;1.00
11536;DHT22;5824;49.336;8.652;2023-07-29T13:36:50;34.60;1.00
11536;DHT22;5824;49.336;8.652;2023-07-29T13:39:16;35.20;1.00
11536;DHT22;5824;49.336;8.652;2023-07-29T13:41:41;36.00;1.00
11536;DHT22;5824;49.336;8.652;2023-07-29T13:44:07;36.50;1.00
11536;DHT22;5824;49.336;8.652;2023-07-29T13:46:32;37.00;1.00
11536;DHT22;5824;49.336;8.652;2023-07-29T13:48:58;36.90;1.00
11536;DHT22;5824;49.336;8.652;2023-07-29T13:51:23;37.70;1.00
11536;DHT22;5824;49.336;8.652;2023-07-29T13:53:49;38.00;1.00
11536;DHT22;5824;49.336;8.652;2023-07-29T13:56:14;37.30;1.00
11536;DHT22;5824;49.336;8.652;2023-07-29T13:58:40;37.20;1.00
11536;DHT22;5824;49.336;8.652;2023-07-29T14:01:06;35.50;1.00
11536;DHT22;5824;49.336;8.652;2023-07-29T14:03:31;34.80;1.00
11536;DHT22;5824;49.336;8.652;2023-07-29T14:05:57;34.30;1.00
11536;DHT22;5824;49.336;8.652;2023-07-29T14:08:22;34.20;1.00
11536;DHT22;5824;49.336;8.652;2023-07-29T14:10:51;34.50;1.00
11536;DHT22;5824;49.336;8.652;2023-07-29T14:13:16;35.10;1.00
11536;DHT22;5824;49.336;8.652;2023-07-29T14:15:42;35.90;1.00
11536;DHT22;5824;49.336;8.652;2023-07-29T14:18:07;35.60;1.00
11536;DHT22;5824;49.336;8.652;2023-07-29T14:20:33;35.10;1.00
11536;DHT22;5824;49.336;8.652;2023-07-29T14:22:59;36.20;1.00
11536;DHT22;5824;49.336;8.652;2023-07-29T14:25:25;36.00;1.00
11536;DHT22;5824;49.336;8.652;2023-07-29T14:27:50;35.90;1.00
11536;DHT22;5824;49.336;8.652;2023-07-29T14:30:16;36.30;1.00
11536;DHT22;5824;49.336;8.652;2023-07-29T14:32:42;36.80;1.00
11536;DHT22;5824;49.336;8.652;2023-07-29T14:35:07;36.90;1.00
11536;DHT22;5824;49.336;8.652;2023-07-29T14:37:33;37.00;1.00
11536;DHT22;5824;49.336;8.652;2023-07-29T14:39:59;37.10;1.00
11536;DHT22;5824;49.336;8.652;2023-07-29T14:42:26;37.20;1.00
11536;DHT22;5824;49.336;8.652;2023-07-29T14:44:51;36.90;1.00
11536;DHT22;5824;49.336;8.652;2023-07-29T14:47:17;36.60;1.00
11536;DHT22;5824;49.336;8.652;2023-07-29T14:49:44;35.90;1.00
11536;DHT22;5824;49.336;8.652;2023-07-29T14:52:09;35.40;1.00
11536;DHT22;5824;49.336;8.652;2023-07-29T14:54:35;35.40;1.00
11536;DHT22;5824;49.336;8.652;2023-07-29T14:57:01;32.80;1.00
11536;DHT22;5824;49.336;8.652;2023-07-29T14:59:26;32.80;1.00
11536;DHT22;5824;49.336;8.652;2023-07-29T15:01:52;34.00;1.00
11536;DHT22;5824;49.336;8.652;2023-07-29T15:04:18;34.80;1.00
11536;DHT22;5824;49.336;8.652;2023-07-29T15:06:43;34.90;1.00
11536;DHT22;5824;49.336;8.652;2023-07-29T15:09:09;35.00;1.00
11536;DHT22;5824;49.336;8.652;2023-07-29T15:11:35;35.70;1.00
11536;DHT22;5824;49.336;8.652;2023-07-29T15:14:02;35.90;1.00
11536;DHT22;5824;49.336;8.652;2023-07-29T15:16:29;35.90;1.00
11536;DHT22;5824;49.336;8.652;2023-07-29T15:18:55;36.00;1.00
11536;DHT22;5824;49.336;8.652;2023-07-29T15:21:21;35.20;1.00
11536;DHT22;5824;49.336;8.652;2023-07-29T15:23:46;33.40;1.00
11536;DHT22;5824;49.336;8.652;2023-07-29T15:26:12;31.10;1.00
11536;DHT22;5824;49.336;8.652;2023-07-29T15:28:38;31.10;1.00
11536;DHT22;5824;49.336;8.652;2023-07-29T15:31:03;31.60;1.00
11536;DHT22;5824;49.336;8.652;2023-07-29T15:33:29;31.50;1.00
11536;DHT22;5824;49.336;8.652;2023-07-29T15:35:54;31.30;1.00
11536;DHT22;5824;49.336;8.652;2023-07-29T15:38:20;30.80;1.00
11536;DHT22;5824;49.336;8.652;2023-07-29T15:40:45;30.30;1.00
11536;DHT22;5824;49.336;8.652;2023-07-29T15:43:14;31.30;1.00
11536;DHT22;5824;49.336;8.652;2023-07-29T15:45:39;32.10;1.00
11536;DHT22;5824;49.336;8.652;2023-07-29T15:48:05;32.80;1.00
11536;DHT22;5824;49.336;8.652;2023-07-29T15:50:30;32.70;1.00
11536;DHT22;5824;49.336;8.652;2023-07-29T15:52:56;32.00;1.00
11536;DHT22;5824;49.336;8.652;2023-07-29T15:55:21;30.70;1.00
11536;DHT22;5824;49.336;8.652;2023-07-29T15:57:47;29.30;1.00
11536;DHT22;5824;49.336;8.652;2023-07-29T16:00:13;29.30;1.00
11536;DHT22;5824;49.336;8.652;2023-07-29T16:02:38;29.40;1.00
11536;DHT22;5824;49.336;8.652;2023-07-29T16:05:08;29.00;1.00